createdAt,value
2022-08-07T00:00:18.853Z,73181.25
2022-08-07T00:00:52.332Z,73175.25
2022-08-07T00:01:44.370Z,73175.25
2022-08-07T00:02:37.253Z,73177.25
2022-08-07T00:03:14.878Z,73177.25
2022-08-07T00:03:47.661Z,73171.25
2022-08-07T00:04:24.423Z,73175.25
2022-08-07T00:04:59.798Z,73183.22
2022-08-07T00:05:32.510Z,73177.25
2022-08-07T00:06:09.170Z,73177.25
2022-08-07T00:06:51.965Z,73177.25
2022-08-07T00:07:24.776Z,73177.25
2022-08-07T00:08:02.064Z,73173.25
2022-08-07T00:08:37.372Z,73173.25
2022-08-07T00:09:21.299Z,73177.25
2022-08-07T00:10:25.586Z,73177.25
2022-08-07T00:10:57.453Z,73177.25
2022-08-07T00:11:33.464Z,73177.25
2022-08-07T00:12:06.235Z,73181.25
2022-08-07T00:12:57.822Z,73185.22
2022-08-07T00:13:37.503Z,73183.22
2022-08-07T00:14:17.335Z,73185.22
2022-08-07T00:14:51.473Z,73181.25
2022-08-07T00:15:25.861Z,73185.22
2022-08-07T00:16:12.651Z,73191.22
2022-08-07T00:16:50.037Z,73187.22
2022-08-07T00:17:25.043Z,73191.22
2022-08-07T00:17:59.295Z,73191.22
2022-08-07T00:18:31.739Z,73183.22
2022-08-07T00:19:06.788Z,73185.22
2022-08-07T00:20:01.075Z,73181.25
2022-08-07T00:20:35.950Z,73181.25
2022-08-07T00:21:56.421Z,73185.22
2022-08-07T00:22:05.649Z,73185.22
2022-08-07T00:22:42.319Z,73189.22
2022-08-07T00:23:24.618Z,73189.22
2022-08-07T00:24:03.354Z,73193.22
2022-08-07T00:24:35.741Z,73191.22
2022-08-07T00:25:11.026Z,73187.22
2022-08-07T00:25:59.236Z,73193.22
2022-08-07T00:26:59.503Z,73193.22
2022-08-07T00:27:35.734Z,73189.22
2022-08-07T00:28:22.611Z,73197.22
2022-08-07T00:29:09.487Z,73193.22
2022-08-07T00:29:45.201Z,73197.22
2022-08-07T00:30:26.357Z,73191.22
2022-08-07T00:31:01.016Z,73197.22
2022-08-07T00:31:42.147Z,73197.22
2022-08-07T00:32:14.934Z,73203.19
2022-08-07T00:32:49.215Z,73201.19
2022-08-07T00:33:28.439Z,73203.19
2022-08-07T00:34:05.435Z,73207.19
2022-08-07T00:34:44.172Z,73201.19
2022-08-07T00:35:18.774Z,73203.19
2022-08-07T00:35:56.353Z,73205.19
2022-08-07T00:36:31.344Z,73205.19
2022-08-07T00:37:04.997Z,73205.19
2022-08-07T00:37:47.672Z,73203.19
2022-08-07T00:38:31.729Z,73201.19
2022-08-07T00:39:05.772Z,73201.19
2022-08-07T00:39:38.285Z,73201.19
2022-08-07T00:40:39.209Z,73203.19
2022-08-07T00:41:14.618Z,73209.19
2022-08-07T00:42:02.369Z,73209.19
2022-08-07T00:42:37.790Z,73215.19
2022-08-07T00:43:58.882Z,73209.19
2022-08-07T00:44:10.887Z,73211.19
2022-08-07T00:44:50.200Z,73221.16
2022-08-07T00:45:23.596Z,73219.16
2022-08-07T00:45:56.210Z,73217.16
2022-08-07T00:46:32.819Z,73221.16
2022-08-07T00:47:15.963Z,73221.16
2022-08-07T00:48:08.328Z,73225.16
2022-08-07T00:48:43.753Z,73221.16
2022-08-07T00:50:16.760Z,73223.16
2022-08-07T00:50:19.444Z,73223.16
2022-08-07T00:51:04.145Z,73225.16
2022-08-07T00:51:57.288Z,73217.16
2022-08-07T00:52:33.179Z,73225.16
2022-08-07T00:53:09.310Z,73219.16
2022-08-07T00:53:50.428Z,73217.16
2022-08-07T00:54:27.324Z,73219.16
2022-08-07T00:55:10.591Z,73215.19
2022-08-07T00:56:02.250Z,73215.19
2022-08-07T00:56:38.871Z,73217.16
2022-08-07T00:57:12.285Z,73219.16
2022-08-07T00:57:55.758Z,73217.16
2022-08-07T00:58:31.394Z,73217.16
2022-08-07T00:59:04.342Z,73215.19
2022-08-07T00:59:39.550Z,73219.16
2022-08-07T01:00:15.884Z,73209.19
2022-08-07T01:00:53.804Z,73209.19
2022-08-07T01:01:26.852Z,73207.19
2022-08-07T01:02:02.905Z,73209.19
2022-08-07T01:02:38.618Z,73211.19
2022-08-07T01:03:12.772Z,73209.19
2022-08-07T01:03:55.358Z,73209.19
2022-08-07T01:04:33.111Z,73205.19
2022-08-07T01:05:18.796Z,73217.16
2022-08-07T01:05:53.714Z,73205.19
2022-08-07T01:06:26.924Z,73213.19
2022-08-07T01:07:02.250Z,73205.19
2022-08-07T01:07:35.711Z,73209.19
2022-08-07T01:08:08.986Z,73205.19
2022-08-07T01:08:53.379Z,73203.19
2022-08-07T01:10:04.452Z,73207.19
2022-08-07T01:10:23.509Z,73209.19
2022-08-07T01:10:56.923Z,73205.19
2022-08-07T01:12:23.406Z,73207.19
2022-08-07T01:12:30.889Z,73209.19
2022-08-07T01:13:06.994Z,73205.19
2022-08-07T01:13:39.733Z,73213.19
2022-08-07T01:14:29.027Z,73209.19
2022-08-07T01:15:11.774Z,73209.19
2022-08-07T01:16:01.068Z,73209.19
2022-08-07T01:16:43.017Z,73213.19
2022-08-07T01:17:15.758Z,73209.19
2022-08-07T01:17:48.894Z,73209.19
2022-08-07T01:18:24.784Z,73207.19
2022-08-07T01:18:58.379Z,73209.19
2022-08-07T01:19:32.484Z,73205.19
2022-08-07T01:20:16.722Z,73207.19
2022-08-07T01:20:59.234Z,73205.19
2022-08-07T01:21:38.336Z,73209.19
2022-08-07T01:22:22.543Z,73203.19
2022-08-07T01:23:09.438Z,73201.19
2022-08-07T01:23:49.197Z,73207.19
2022-08-07T01:24:22.520Z,73201.19
2022-08-07T01:24:56.285Z,73197.22
2022-08-07T01:25:54.787Z,73203.19
2022-08-07T01:26:25.151Z,73203.19
2022-08-07T01:27:03.096Z,73197.22
2022-08-07T01:27:38.067Z,73197.22
2022-08-07T01:28:25.954Z,73197.22
2022-08-07T01:29:01.612Z,73197.22
2022-08-07T01:29:36.198Z,73191.22
2022-08-07T01:30:13.090Z,73189.22
2022-08-07T01:30:52.766Z,73191.22
2022-08-07T01:31:42.717Z,73189.22
2022-08-07T01:32:22.978Z,73185.22
2022-08-07T01:32:58.239Z,73183.22
2022-08-07T01:33:53.726Z,73189.22
2022-08-07T01:34:30.771Z,73181.25
2022-08-07T01:35:06.898Z,73179.25
2022-08-07T01:35:53.647Z,73177.25
2022-08-07T01:36:33.761Z,73177.25
2022-08-07T01:37:17.250Z,73175.25
2022-08-07T01:37:52.358Z,73175.25
2022-08-07T01:38:29.232Z,73173.25
2022-08-07T01:39:10.059Z,73173.25
2022-08-07T01:39:46.860Z,73173.25
2022-08-07T01:40:48.386Z,73173.25
2022-08-07T01:41:26.329Z,73175.25
2022-08-07T01:42:36.983Z,73171.25
2022-08-07T01:42:59.085Z,73169.25
2022-08-07T01:43:38.199Z,73173.25
2022-08-07T01:44:15.513Z,73169.25
2022-08-07T01:44:49.445Z,73169.25
2022-08-07T01:45:22.877Z,73167.25
2022-08-07T01:46:06.039Z,73173.25
2022-08-07T01:46:44.368Z,73171.25
2022-08-07T01:48:20.850Z,73173.25
2022-08-07T01:48:27.338Z,73165.28
2022-08-07T01:49:03.773Z,73171.25
2022-08-07T01:49:39.244Z,73167.25
2022-08-07T01:50:11.699Z,73163.28
2022-08-07T01:50:47.715Z,73167.25
2022-08-07T01:52:03.459Z,73163.28
2022-08-07T01:52:22.185Z,73165.28
2022-08-07T01:53:00.363Z,73161.28
2022-08-07T01:54:11.583Z,73161.28
2022-08-07T01:54:33.018Z,73161.28
2022-08-07T01:55:22.176Z,73161.28
2022-08-07T01:56:05.616Z,73161.28
2022-08-07T01:56:42.927Z,73157.28
2022-08-07T01:57:25.036Z,73157.28
2022-08-07T01:58:06.377Z,73155.28
2022-08-07T01:59:00.206Z,73151.28
2022-08-07T01:59:43.665Z,73153.28
2022-08-07T02:00:17.120Z,73149.31
2022-08-07T02:01:09.405Z,73151.28
2022-08-07T02:02:00.047Z,73161.28
2022-08-07T02:03:18.274Z,73153.28
2022-08-07T02:03:50.346Z,73161.28
2022-08-07T02:04:27.689Z,73161.28
2022-08-07T02:05:16.164Z,73161.28
2022-08-07T02:06:08.953Z,73159.28
2022-08-07T02:07:06.671Z,73167.25
2022-08-07T02:07:50.572Z,73161.28
2022-08-07T02:08:43.139Z,73165.28
2022-08-07T02:09:51.785Z,73161.28
2022-08-07T02:10:14.481Z,73163.28
2022-08-07T02:10:55.051Z,73161.28
2022-08-07T02:11:31.027Z,73159.28
2022-08-07T02:12:30.953Z,73161.28
2022-08-07T02:13:07.985Z,73157.28
2022-08-07T02:13:58.011Z,73159.28
2022-08-07T02:14:40.887Z,73155.28
2022-08-07T02:15:22.814Z,73153.28
2022-08-07T02:16:00.469Z,73159.28
2022-08-07T02:16:34.674Z,73149.31
2022-08-07T02:17:07.670Z,73157.28
2022-08-07T02:17:49.466Z,73155.28
2022-08-07T02:18:25.879Z,73153.28
2022-08-07T02:19:05.635Z,73155.28
2022-08-07T02:20:04.431Z,73153.28
2022-08-07T02:20:40.707Z,73153.28
2022-08-07T02:21:16.898Z,73157.28
2022-08-07T02:21:56.705Z,73157.28
2022-08-07T02:22:31.931Z,73151.28
2022-08-07T02:23:11.699Z,73157.28
2022-08-07T02:23:45.716Z,73157.28
2022-08-07T02:24:18.320Z,73159.28
2022-08-07T02:24:54.920Z,73157.28
2022-08-07T02:26:10.810Z,73155.28
2022-08-07T02:26:33.171Z,73157.28
2022-08-07T02:27:08.559Z,73153.28
2022-08-07T02:27:41.938Z,73161.28
2022-08-07T02:28:24.421Z,73157.28
2022-08-07T02:28:59.036Z,73153.28
2022-08-07T02:29:36.820Z,73159.28
2022-08-07T02:30:18.766Z,73153.28
2022-08-07T02:30:52.802Z,73157.28
2022-08-07T02:31:28.819Z,73161.28
2022-08-07T02:32:04.941Z,73157.28
2022-08-07T02:32:38.710Z,73153.28
2022-08-07T02:33:18.828Z,73149.31
2022-08-07T02:34:03.541Z,73153.28
2022-08-07T02:34:51.192Z,73147.31
2022-08-07T02:36:29.247Z,73151.28
2022-08-07T02:36:30.671Z,73157.28
2022-08-07T02:37:13.079Z,73151.28
2022-08-07T02:37:47.188Z,73153.28
2022-08-07T02:38:31.965Z,73149.31
2022-08-07T02:39:16.022Z,73153.28
2022-08-07T02:40:02.044Z,73157.28
2022-08-07T02:40:46.701Z,73149.31
2022-08-07T02:41:21.708Z,73149.31
2022-08-07T02:41:56.795Z,73149.31
2022-08-07T02:42:34.306Z,73145.31
2022-08-07T02:43:08.066Z,73149.31
2022-08-07T02:43:42.290Z,73145.31
2022-08-07T02:44:22.139Z,73147.31
2022-08-07T02:44:59.079Z,73151.28
2022-08-07T02:45:59.446Z,73149.31
2022-08-07T02:46:27.318Z,73145.31
2022-08-07T02:47:05.828Z,73145.31
2022-08-07T02:47:45.029Z,73153.28
2022-08-07T02:48:21.023Z,73149.31
2022-08-07T02:48:56.491Z,73149.31
2022-08-07T02:49:58.254Z,73149.31
2022-08-07T02:50:26.549Z,73149.31
2022-08-07T02:51:28.844Z,73151.28
2022-08-07T02:52:02.490Z,73153.28
2022-08-07T02:52:41.035Z,73149.31
2022-08-07T02:53:22.000Z,73161.28
2022-08-07T02:54:06.706Z,73149.31
2022-08-07T02:54:41.567Z,73157.28
2022-08-07T02:55:28.243Z,73159.28
2022-08-07T02:56:21.313Z,73157.28
2022-08-07T02:56:55.567Z,73161.28
2022-08-07T02:57:34.162Z,73159.28
2022-08-07T02:58:11.242Z,73161.28
2022-08-07T02:58:46.966Z,73161.28
2022-08-07T02:59:27.347Z,73157.28
2022-08-07T03:00:05.022Z,73151.28
2022-08-07T03:00:46.692Z,73153.28
2022-08-07T03:01:36.568Z,73159.28
2022-08-07T03:02:16.495Z,73151.28
2022-08-07T03:02:55.131Z,73157.28
2022-08-07T03:03:49.044Z,73151.28
2022-08-07T03:04:26.808Z,73153.28
2022-08-07T03:05:06.751Z,73157.28
2022-08-07T03:05:43.183Z,73157.28
2022-08-07T03:06:25.501Z,73157.28
2022-08-07T03:07:10.613Z,73157.28
2022-08-07T03:08:07.618Z,73153.28
2022-08-07T03:08:43.768Z,73161.28
2022-08-07T03:09:44.720Z,73159.28
2022-08-07T03:10:19.056Z,73159.28
2022-08-07T03:11:00.223Z,73155.28
2022-08-07T03:11:51.863Z,73157.28
2022-08-07T03:12:30.720Z,73149.31
2022-08-07T03:13:10.443Z,73153.28
2022-08-07T03:13:49.498Z,73155.28
2022-08-07T03:14:27.778Z,73155.28
2022-08-07T03:15:02.549Z,73153.28
2022-08-07T03:15:55.656Z,73157.28
2022-08-07T03:16:33.288Z,73157.28
2022-08-07T03:17:06.335Z,73153.28
2022-08-07T03:17:53.990Z,73163.28
2022-08-07T03:18:34.844Z,73157.28
2022-08-07T03:19:09.923Z,73161.28
2022-08-07T03:19:45.738Z,73157.28
2022-08-07T03:20:32.038Z,73157.28
2022-08-07T03:21:08.405Z,73157.28
2022-08-07T03:21:50.500Z,73165.28
2022-08-07T03:22:29.553Z,73161.28
2022-08-07T03:23:03.951Z,73161.28
2022-08-07T03:24:19.342Z,73157.28
2022-08-07T03:24:37.748Z,73163.28
2022-08-07T03:25:13.743Z,73157.28
2022-08-07T03:25:58.168Z,73159.28
2022-08-07T03:26:35.479Z,73163.28
2022-08-07T03:27:30.869Z,73165.28
2022-08-07T03:28:37.401Z,73161.28
2022-08-07T03:29:14.839Z,73155.28
2022-08-07T03:29:57.843Z,73157.28
2022-08-07T03:30:34.811Z,73163.28
2022-08-07T03:31:24.633Z,73161.28
2022-08-07T03:32:13.528Z,73155.28
2022-08-07T03:32:58.366Z,73157.28
2022-08-07T03:33:40.139Z,73151.28
2022-08-07T03:34:22.543Z,73165.28
2022-08-07T03:35:17.461Z,73161.28
2022-08-07T03:35:54.415Z,73167.25
2022-08-07T03:36:32.450Z,73167.25
2022-08-07T03:37:12.115Z,73165.28
2022-08-07T03:37:54.186Z,73161.28
2022-08-07T03:38:33.518Z,73167.25
2022-08-07T03:39:12.541Z,73167.25
2022-08-07T03:40:07.301Z,73165.28
2022-08-07T03:40:45.928Z,73169.25
2022-08-07T03:41:42.583Z,73165.28
2022-08-07T03:42:22.031Z,73169.25
2022-08-07T03:42:57.595Z,73173.25
2022-08-07T03:43:33.127Z,73169.25
2022-08-07T03:44:11.259Z,73173.25
2022-08-07T03:44:53.248Z,73173.25
2022-08-07T03:45:32.982Z,73173.25
2022-08-07T03:46:18.185Z,73167.25
2022-08-07T03:47:13.483Z,73165.28
2022-08-07T03:47:51.893Z,73167.25
2022-08-07T03:48:27.094Z,73169.25
2022-08-07T03:49:03.476Z,73169.25
2022-08-07T03:49:48.007Z,73169.25
2022-08-07T03:50:31.994Z,73165.28
2022-08-07T03:51:10.196Z,73165.28
2022-08-07T03:51:55.216Z,73173.25
2022-08-07T03:52:35.488Z,73169.25
2022-08-07T03:53:11.022Z,73169.25
2022-08-07T03:54:33.198Z,73171.25
2022-08-07T03:54:55.022Z,73175.25
2022-08-07T03:55:58.348Z,73173.25
2022-08-07T03:56:33.372Z,73169.25
2022-08-07T03:57:11.887Z,73177.25
2022-08-07T03:58:35.151Z,73173.25
2022-08-07T03:59:09.436Z,73175.25
2022-08-07T04:00:02.806Z,73169.25
2022-08-07T04:00:54.879Z,73173.25
2022-08-07T04:01:32.122Z,73177.25
2022-08-07T04:02:08.278Z,73175.25
2022-08-07T04:02:43.206Z,73171.25
2022-08-07T04:03:38.878Z,73173.25
2022-08-07T04:04:24.782Z,73177.25
2022-08-07T04:05:06.180Z,73173.25
2022-08-07T04:05:42.285Z,73177.25
2022-08-07T04:06:37.383Z,73175.25
2022-08-07T04:07:17.967Z,73173.25
2022-08-07T04:07:57.228Z,73177.25
2022-08-07T04:08:34.651Z,73171.25
2022-08-07T04:09:08.450Z,73181.25
2022-08-07T04:09:50.720Z,73177.25
2022-08-07T04:10:30.924Z,73175.25
2022-08-07T04:12:21.175Z,73173.25
2022-08-07T04:12:24.221Z,73177.25
2022-08-07T04:12:56.378Z,73177.25
2022-08-07T04:14:09.180Z,73173.25
2022-08-07T04:14:38.441Z,73177.25
2022-08-07T04:15:17.549Z,73177.25
2022-08-07T04:15:51.082Z,73173.25
2022-08-07T04:16:31.008Z,73177.25
2022-08-07T04:17:20.190Z,73181.25
2022-08-07T04:18:57.491Z,73177.25
2022-08-07T04:19:01.509Z,73177.25
2022-08-07T04:19:52.397Z,73171.25
2022-08-07T04:20:31.655Z,73173.25
2022-08-07T04:21:07.813Z,73181.25
2022-08-07T04:21:59.593Z,73177.25
2022-08-07T04:22:40.526Z,73177.25
2022-08-07T04:23:43.212Z,73177.25
2022-08-07T04:24:30.863Z,73175.25
2022-08-07T04:25:12.538Z,73177.25
2022-08-07T04:25:48.238Z,73175.25
2022-08-07T04:26:28.510Z,73179.25
2022-08-07T04:27:03.143Z,73181.25
2022-08-07T04:27:43.974Z,73169.25
2022-08-07T04:28:23.471Z,73177.25
2022-08-07T04:28:58.460Z,73177.25
2022-08-07T04:29:49.036Z,73177.25
2022-08-07T04:30:43.370Z,73179.25
2022-08-07T04:31:39.071Z,73175.25
2022-08-07T04:32:34.069Z,73177.25
2022-08-07T04:33:09.322Z,73183.22
2022-08-07T04:33:56.487Z,73183.22
2022-08-07T04:34:33.375Z,73181.25
2022-08-07T04:35:14.508Z,73181.25
2022-08-07T04:35:50.428Z,73177.25
2022-08-07T04:36:29.084Z,73189.22
2022-08-07T04:37:02.608Z,73179.25
2022-08-07T04:38:03.418Z,73185.22
2022-08-07T04:38:35.746Z,73185.22
2022-08-07T04:39:08.762Z,73181.25
2022-08-07T04:39:47.974Z,73181.25
2022-08-07T04:40:30.121Z,73181.25
2022-08-07T04:41:05.334Z,73181.25
2022-08-07T04:41:50.191Z,73185.22
2022-08-07T04:42:28.745Z,73181.25
2022-08-07T04:43:03.498Z,73185.22
2022-08-07T04:44:12.865Z,73179.25
2022-08-07T04:45:02.998Z,73181.25
2022-08-07T04:46:00.413Z,73177.25
2022-08-07T04:46:42.790Z,73181.25
2022-08-07T04:48:01.308Z,73177.25
2022-08-07T04:48:39.751Z,73181.25
2022-08-07T04:49:25.700Z,73181.25
2022-08-07T04:50:06.662Z,73183.22
2022-08-07T04:50:54.818Z,73187.22
2022-08-07T04:51:33.745Z,73181.25
2022-08-07T04:52:15.054Z,73191.22
2022-08-07T04:52:54.044Z,73189.22
2022-08-07T04:54:01.596Z,73189.22
2022-08-07T04:54:38.723Z,73193.22
2022-08-07T04:58:07.995Z,73189.22
2022-08-07T04:58:12.099Z,73189.22
2022-08-07T04:58:27.328Z,73187.22
2022-08-07T04:58:29.349Z,73189.22
2022-08-07T05:00:11.170Z,73187.22
2022-08-07T05:00:18.951Z,73185.22
2022-08-07T05:01:13.525Z,73185.22
2022-08-07T05:01:50.599Z,73185.22
2022-08-07T05:02:27.849Z,73183.22
2022-08-07T05:03:16.863Z,73189.22
2022-08-07T05:04:17.419Z,73181.25
2022-08-07T05:05:01.842Z,73181.25
2022-08-07T05:05:53.155Z,73189.22
2022-08-07T05:06:43.431Z,73185.22
2022-08-07T05:07:36.629Z,73185.22
2022-08-07T05:08:18.410Z,73185.22
2022-08-07T05:09:43.034Z,73197.22
2022-08-07T05:10:17.346Z,73189.22
2022-08-07T05:10:58.578Z,73185.22
2022-08-07T05:11:58.643Z,73187.22
2022-08-07T05:12:46.240Z,73189.22
2022-08-07T05:14:55.214Z,73189.22
2022-08-07T05:14:55.622Z,73185.22
2022-08-07T05:15:31.425Z,73185.22
2022-08-07T05:16:09.214Z,73193.22
2022-08-07T05:16:44.002Z,73185.22
2022-08-07T05:17:52.659Z,73187.22
2022-08-07T05:18:19.639Z,73189.22
2022-08-07T05:18:59.893Z,73193.22
2022-08-07T05:19:44.833Z,73187.22
2022-08-07T05:20:25.762Z,73189.22
2022-08-07T05:21:02.686Z,73179.25
2022-08-07T05:22:00.235Z,73185.22
2022-08-07T05:22:36.149Z,73185.22
2022-08-07T05:23:17.523Z,73185.22
2022-08-07T05:23:57.987Z,73185.22
2022-08-07T05:24:39.726Z,73189.22
2022-08-07T05:25:25.957Z,73187.22
2022-08-07T05:26:23.612Z,73181.25
2022-08-07T05:27:05.229Z,73177.25
2022-08-07T05:28:02.743Z,73181.25
2022-08-07T05:28:50.144Z,73181.25
2022-08-07T05:29:38.889Z,73177.25
2022-08-07T05:30:32.821Z,73181.25
2022-08-07T05:31:07.999Z,73181.25
2022-08-07T05:31:51.127Z,73177.25
2022-08-07T05:32:31.777Z,73181.25
2022-08-07T05:33:06.164Z,73175.25
2022-08-07T05:33:39.395Z,73179.25
2022-08-07T05:34:17.663Z,73181.25
2022-08-07T05:34:52.291Z,73185.22
2022-08-07T05:35:33.916Z,73181.25
2022-08-07T05:36:22.399Z,73181.25
2022-08-07T05:36:56.487Z,73185.22
2022-08-07T05:37:40.827Z,73185.22
2022-08-07T05:39:01.206Z,73181.25
2022-08-07T05:40:17.437Z,73185.22
2022-08-07T05:40:18.102Z,73181.25
2022-08-07T05:40:53.003Z,73189.22
2022-08-07T05:42:02.762Z,73181.25
2022-08-07T05:42:34.508Z,73179.25
2022-08-07T05:43:15.622Z,73177.25
2022-08-07T05:44:12.268Z,73189.22
2022-08-07T05:45:04.547Z,73179.25
2022-08-07T05:45:47.590Z,73181.25
2022-08-07T05:46:23.551Z,73183.22
2022-08-07T05:47:01.103Z,73177.25
2022-08-07T05:47:38.327Z,73179.25
2022-08-07T05:48:30.535Z,73177.25
2022-08-07T05:49:12.981Z,73173.25
2022-08-07T05:49:49.975Z,73173.25
2022-08-07T05:50:24.461Z,73179.25
2022-08-07T05:51:01.227Z,73177.25
2022-08-07T05:51:39.799Z,73169.25
2022-08-07T05:52:12.917Z,73169.25
2022-08-07T05:52:48.837Z,73169.25
2022-08-07T05:54:12.142Z,73173.25
2022-08-07T05:54:31.538Z,73169.25
2022-08-07T05:55:10.774Z,73163.28
2022-08-07T05:56:02.084Z,73169.25
2022-08-07T05:56:37.942Z,73163.28
2022-08-07T05:57:16.364Z,73169.25
2022-08-07T05:57:51.147Z,73169.25
2022-08-07T05:58:36.270Z,73169.25
2022-08-07T05:59:18.671Z,73165.28
2022-08-07T05:59:57.576Z,73159.28
2022-08-07T06:00:38.967Z,73165.28
2022-08-07T06:01:15.217Z,73165.28
2022-08-07T06:01:50.934Z,73169.25
2022-08-07T06:02:30.598Z,73161.28
2022-08-07T06:03:07.122Z,73161.28
2022-08-07T06:03:53.573Z,73165.28
2022-08-07T06:04:33.187Z,73157.28
2022-08-07T06:05:10.890Z,73161.28
2022-08-07T06:05:49.811Z,73161.28
2022-08-07T06:06:32.765Z,73157.28
2022-08-07T06:07:09.110Z,73169.25
2022-08-07T06:08:05.432Z,73161.28
2022-08-07T06:08:55.721Z,73161.28
2022-08-07T06:10:03.178Z,73149.31
2022-08-07T06:10:24.282Z,73159.28
2022-08-07T06:10:56.743Z,73159.28
2022-08-07T06:11:32.731Z,73159.28
2022-08-07T06:12:06.166Z,73149.31
2022-08-07T06:12:39.856Z,73145.31
2022-08-07T06:13:15.565Z,73149.31
2022-08-07T06:14:12.503Z,73147.31
2022-08-07T06:14:49.553Z,73145.31
2022-08-07T06:15:38.934Z,73147.31
2022-08-07T06:16:19.614Z,73145.31
2022-08-07T06:16:56.162Z,73145.31
2022-08-07T06:17:37.879Z,73143.31
2022-08-07T06:18:14.033Z,73143.31
2022-08-07T06:18:51.906Z,73133.34
2022-08-07T06:19:51.893Z,73141.31
2022-08-07T06:20:25.588Z,73139.31
2022-08-07T06:22:15.282Z,73141.31
2022-08-07T06:22:20.466Z,73141.31
2022-08-07T06:23:24.882Z,73133.34
2022-08-07T06:24:38.584Z,73137.31
2022-08-07T06:24:58.527Z,73133.34
2022-08-07T06:25:36.198Z,73129.34
2022-08-07T06:26:14.893Z,73131.34
2022-08-07T06:26:47.924Z,73129.34
2022-08-07T06:27:44.202Z,73125.34
2022-08-07T06:28:17.499Z,73125.34
2022-08-07T06:29:06.430Z,73125.34
2022-08-07T06:29:39.423Z,73117.38
2022-08-07T06:30:31.876Z,73123.34
2022-08-07T06:31:09.530Z,73125.34
2022-08-07T06:31:50.071Z,73121.34
2022-08-07T06:32:29.506Z,73125.34
2022-08-07T06:33:09.966Z,73123.34
2022-08-07T06:33:48.810Z,73121.34
2022-08-07T06:34:28.095Z,73121.34
2022-08-07T06:35:02.594Z,73119.34
2022-08-07T06:35:48.031Z,73121.34
2022-08-07T06:36:38.847Z,73121.34
2022-08-07T06:37:12.694Z,73125.34
2022-08-07T06:37:53.151Z,73121.34
2022-08-07T06:38:28.503Z,73117.38
2022-08-07T06:40:15.906Z,73119.34
2022-08-07T06:40:15.952Z,73117.38
2022-08-07T06:40:56.340Z,73121.34
2022-08-07T06:42:01.198Z,73117.38
2022-08-07T06:42:35.250Z,73117.38
2022-08-07T06:43:22.532Z,73113.38
2022-08-07T06:44:16.259Z,73109.38
2022-08-07T06:44:53.319Z,73109.38
2022-08-07T06:45:30.209Z,73107.38
2022-08-07T06:46:06.939Z,73109.38
2022-08-07T06:46:53.591Z,73111.38
2022-08-07T06:47:48.307Z,73113.38
2022-08-07T06:48:32.219Z,73115.38
2022-08-07T06:49:08.536Z,73107.38
2022-08-07T06:49:50.865Z,73113.38
2022-08-07T06:50:30.415Z,73113.38
2022-08-07T06:51:07.943Z,73117.38
2022-08-07T06:51:49.900Z,73105.38
2022-08-07T06:52:31.586Z,73111.38
2022-08-07T06:53:18.584Z,73109.38
2022-08-07T06:55:29.876Z,73109.38
2022-08-07T06:55:33.771Z,73105.38
2022-08-07T06:56:01.544Z,73105.38
2022-08-07T06:56:49.610Z,73101.41
2022-08-07T06:57:43.581Z,73101.41
2022-08-07T06:58:32.527Z,73101.41
2022-08-07T07:00:14.716Z,73107.38
2022-08-07T07:00:17.629Z,73107.38
2022-08-07T07:00:55.619Z,73101.41
2022-08-07T07:01:33.202Z,73101.41
2022-08-07T07:02:48.161Z,73099.41
2022-08-07T07:03:17.311Z,73097.41
2022-08-07T07:03:55.149Z,73099.41
2022-08-07T07:04:38.627Z,73091.41
2022-08-07T07:06:04.279Z,73099.41
2022-08-07T07:06:11.703Z,73093.41
2022-08-07T07:07:00.286Z,73085.44
2022-08-07T07:08:00.386Z,73085.44
2022-08-07T07:08:33.048Z,73085.44
2022-08-07T07:09:25.517Z,73085.44
2022-08-07T07:10:04.926Z,73083.44
2022-08-07T07:10:37.691Z,73081.44
2022-08-07T07:11:13.994Z,73079.44
2022-08-07T07:12:31.177Z,73081.44
2022-08-07T07:13:13.379Z,73077.44
2022-08-07T07:13:57.506Z,73077.44
2022-08-07T07:14:41.131Z,73077.44
2022-08-07T07:15:24.182Z,73075.44
2022-08-07T07:16:11.358Z,73077.44
2022-08-07T07:16:49.759Z,73081.44
2022-08-07T07:17:38.748Z,73077.44
2022-08-07T07:18:33.016Z,73077.44
2022-08-07T07:19:55.799Z,73077.44
2022-08-07T07:20:13.145Z,73069.47
2022-08-07T07:20:50.327Z,73073.44
2022-08-07T07:21:40.247Z,73073.44
2022-08-07T07:22:36.093Z,73069.47
2022-08-07T07:24:09.555Z,73065.47
2022-08-07T07:24:12.656Z,73057.47
2022-08-07T07:24:57.013Z,73065.47
2022-08-07T07:26:34.471Z,73057.47
2022-08-07T07:26:36.887Z,73057.47
2022-08-07T07:27:13.630Z,73053.50
2022-08-07T07:27:58.398Z,73051.50
2022-08-07T07:28:48.561Z,73049.50
2022-08-07T07:29:56.300Z,73053.50
2022-08-07T07:30:40.081Z,73047.50
2022-08-07T07:31:17.227Z,73045.50
2022-08-07T07:31:55.697Z,73041.50
2022-08-07T07:32:32.687Z,73037.53
2022-08-07T07:33:05.742Z,73041.50
2022-08-07T07:33:43.982Z,73045.50
2022-08-07T07:34:32.015Z,73033.53
2022-08-07T07:35:09.288Z,73033.53
2022-08-07T07:36:04.013Z,73029.53
2022-08-07T07:36:41.682Z,73035.53
2022-08-07T07:37:45.377Z,73033.53
2022-08-07T07:38:17.046Z,73031.53
2022-08-07T07:38:49.908Z,73025.53
2022-08-07T07:39:23.187Z,73033.53
2022-08-07T07:40:03.367Z,73029.53
2022-08-07T07:40:43.239Z,73031.53
2022-08-07T07:41:21.184Z,73029.53
2022-08-07T07:42:13.125Z,73029.53
2022-08-07T07:42:54.207Z,73025.53
2022-08-07T07:44:14.923Z,73021.56
2022-08-07T07:44:26.062Z,73021.56
2022-08-07T07:45:02.564Z,73025.53
2022-08-07T07:46:50.050Z,73017.56
2022-08-07T07:46:53.285Z,73025.53
2022-08-07T07:47:25.622Z,73015.56
2022-08-07T07:48:02.239Z,73011.56
2022-08-07T07:48:37.022Z,73017.56
2022-08-07T07:50:34.442Z,73013.56
2022-08-07T07:50:36.531Z,73015.56
2022-08-07T07:50:59.731Z,73017.56
2022-08-07T07:51:57.950Z,73009.56
2022-08-07T07:52:30.775Z,73007.56
2022-08-07T07:53:20.625Z,73007.56
2022-08-07T07:53:56.728Z,73001.59
2022-08-07T07:54:35.985Z,72995.59
2022-08-07T07:55:11.048Z,73001.59
2022-08-07T07:55:45.660Z,72999.59
2022-08-07T07:56:33.642Z,72993.59
2022-08-07T07:57:06.378Z,72993.59
2022-08-07T07:57:50.211Z,72995.59
2022-08-07T07:58:28.047Z,72993.59
2022-08-07T07:59:02.020Z,72995.59
2022-08-07T07:59:52.062Z,72993.59
2022-08-07T08:00:34.348Z,72997.59
2022-08-07T08:02:03.206Z,72991.59
2022-08-07T08:02:10.768Z,72983.63
2022-08-07T08:03:01.043Z,72985.63
2022-08-07T08:04:10.100Z,72985.63
2022-08-07T08:04:34.176Z,72985.63
2022-08-07T08:05:14.155Z,72989.59
2022-08-07T08:05:54.110Z,72981.63
2022-08-07T08:06:31.383Z,72989.59
2022-08-07T08:07:07.526Z,72989.59
2022-08-07T08:07:42.525Z,72979.63
2022-08-07T08:08:39.302Z,72983.63
2022-08-07T08:09:18.010Z,72989.59
2022-08-07T08:09:52.057Z,72985.63
2022-08-07T08:10:41.513Z,72981.63
2022-08-07T08:11:18.225Z,72985.63
2022-08-07T08:12:09.942Z,72977.63
2022-08-07T08:12:58.866Z,72977.63
2022-08-07T08:13:36.756Z,72985.63
2022-08-07T08:14:27.149Z,72981.63
2022-08-07T08:14:59.709Z,72977.63
2022-08-07T08:15:57.439Z,72981.63
2022-08-07T08:16:35.909Z,72975.63
2022-08-07T08:17:32.343Z,72979.63
2022-08-07T08:18:17.334Z,72979.63
2022-08-07T08:18:54.682Z,72981.63
2022-08-07T08:20:15.961Z,72973.63
2022-08-07T08:20:31.597Z,72977.63
2022-08-07T08:21:07.533Z,72981.63
2022-08-07T08:22:03.309Z,72979.63
2022-08-07T08:22:56.379Z,72973.63
2022-08-07T08:23:44.554Z,72973.63